Overview Statistics Trail Chart Weather Telemetry Raw packets
 

This is the latest recevied weather packets stored in our database for station/object OK2VOP-6. If no packets are shown the sender has not sent any weather packets the latest 10 day(s).

<< 1 2 3 4 5 6 7 >>
Time Temp. Humidity Pressure Rain* Wind** Luminosity Snow
1788631286 21.67° C 22% - 0 mm - - -
1788630081 22.22° C 20% - 0 mm - - -
1788628876 22.78° C 18% - 0 mm - - -
1788627671 23.33° C 17% - 0 mm - - -
1788626467 23.33° C 15% - 0 mm - - -
1788625262 23.89° C 13% - 0 mm - - -
1788624057 24.44° C 11% - 0 mm - - -
1788622852 24.44° C 10% - 0 mm - - -
1788621647 25° C 8% - 0 mm - - -
1788620445 26.11° C 9% - 0 mm - - -
1788619237 26.67° C 5% - 0 mm - - -
1788618033 26.67° C 7% - 0 mm - - -
1788616828 26.67° C 8% - 0 mm - - -
1788615623 26.11° C 9% - 0 mm - - -
1788614418 26.11° C 8% - 0 mm - - -
1788613214 25.56° C 11% - 0 mm - - -
1788612009 25.56° C 11% - 0 mm - - -
1788610824 25.56° C 14% - 0 mm - - -
1788609599 25° C 16% - 0 mm - - -
1788608394 25° C 18% - 0 mm - - -
1788607189 23.89° C 22% - 0 mm - - -
1788605984 22.78° C 28% - 0 mm - - -
1788604779 22.22° C 31% - 0 mm - - -
1788603575 21.67° C 35% - 0 mm - - -
1788602370 20.56° C 36% - 0 mm - - -

* Rain latest hour (hover to see other rain measurements)
** Current wind speed in m/s (hover to see current wind gust speed)